createdAt,value
2022-10-24T00:00:37.581Z,99944.50
2022-10-24T00:05:47.297Z,99945.03
2022-10-24T00:10:49.416Z,99936.16
2022-10-24T00:15:51.025Z,99931.56
2022-10-24T00:20:52.539Z,99924.81
2022-10-24T00:25:54.057Z,99914.00
2022-10-24T00:30:55.474Z,99915.88
2022-10-24T00:35:57.086Z,99909.38
2022-10-24T00:40:58.501Z,99908.63
2022-10-24T00:46:01.897Z,99906.66
2022-10-24T00:51:14.989Z,99915.28
2022-10-24T00:56:19.459Z,99929.59
2022-10-24T01:01:21.073Z,99919.94
2022-10-24T01:06:25.585Z,99908.25
2022-10-24T01:11:44.989Z,99909.31
2022-10-24T01:16:49.120Z,99897.66
2022-10-24T01:21:57.370Z,99899.56
2022-10-24T01:27:33.117Z,99891.22
2022-10-24T01:32:37.483Z,99889.72
2022-10-24T01:37:48.424Z,99884.03
2022-10-24T01:42:53.365Z,99883.19
2022-10-24T01:47:59.291Z,99884.03
2022-10-24T01:53:02.298Z,99874.59
2022-10-24T01:58:03.771Z,99873.63
2022-10-24T02:03:16.704Z,99875.94
2022-10-24T02:08:23.743Z,99870.97
2022-10-24T02:13:42.252Z,99881.63
2022-10-24T02:18:44.282Z,99874.75
2022-10-24T02:23:50.895Z,99877.31
2022-10-24T02:28:58.711Z,99873.78
2022-10-24T02:34:03.550Z,99863.53
2022-10-24T02:39:09.368Z,99863.63
2022-10-24T02:44:15.260Z,99859.56
2022-10-24T02:49:16.902Z,99843.72
2022-10-24T02:54:18.439Z,99838.66
2022-10-24T02:59:19.913Z,99839.34
2022-10-24T03:04:21.480Z,99848.34
2022-10-24T03:09:22.993Z,99866.25
2022-10-24T03:14:24.488Z,99873.25
2022-10-24T03:19:26.107Z,99887.78
2022-10-24T03:24:43.364Z,99891.78
2022-10-24T03:29:46.060Z,99883.88
2022-10-24T03:34:47.564Z,99883.03
2022-10-24T03:39:49.235Z,99881.31
2022-10-24T03:44:50.702Z,99883.88
2022-10-24T03:49:52.169Z,99879.72
2022-10-24T03:54:53.645Z,99878.91
2022-10-24T03:59:55.129Z,99891.78
2022-10-24T04:04:56.623Z,99899.88
2022-10-24T04:09:58.048Z,99907.97
2022-10-24T04:15:02.488Z,99920.69
2022-10-24T04:20:07.139Z,99922.19
2022-10-24T04:25:08.624Z,99925.06
2022-10-24T04:30:16.460Z,99911.34
2022-10-24T04:35:18.172Z,99895.69
2022-10-24T04:40:19.639Z,99888.44
2022-10-24T04:45:21.072Z,99898.50
2022-10-24T04:50:22.527Z,99943.56
2022-10-24T04:55:24.295Z,99955.63
2022-10-24T05:00:25.947Z,99976.53
2022-10-24T05:05:27.633Z,99945.66
2022-10-24T05:10:29.126Z,99944.75
2022-10-24T05:15:30.805Z,99950.25
2022-10-24T05:20:32.423Z,99951.72
2022-10-24T05:25:33.911Z,99961.81
2022-10-24T05:30:35.397Z,99955.94
2022-10-24T05:35:38.261Z,99958.16
2022-10-24T05:40:39.710Z,99943.06
2022-10-24T05:45:41.266Z,99947.31
2022-10-24T05:50:42.991Z,99933.88
2022-10-24T05:55:45.098Z,99918.13
2022-10-24T06:00:52.555Z,99931.78
2022-10-24T06:05:55.373Z,99939.56
2022-10-24T06:10:56.808Z,99955.34
2022-10-24T06:15:58.301Z,99959.91
2022-10-24T06:21:02.184Z,99956.06
2022-10-24T06:26:07.741Z,99973.47
2022-10-24T06:31:11.105Z,99996.06
2022-10-24T06:36:14.408Z,100008.44
2022-10-24T06:41:17.312Z,100007.22
2022-10-24T06:46:23.140Z,100019.72
2022-10-24T06:51:25.211Z,100017.31
2022-10-24T06:56:26.857Z,100025.19
2022-10-24T07:01:28.751Z,100001.22
2022-10-24T07:06:30.305Z,99985.25
2022-10-24T07:11:32.581Z,99987.09
2022-10-24T07:16:34.222Z,100008.59
2022-10-24T07:21:35.981Z,100014.34
2022-10-24T07:26:39.591Z,100017.66
2022-10-24T07:31:42.258Z,100024.78
2022-10-24T07:36:44.109Z,100030.31
2022-10-24T07:41:46.791Z,100020.16
2022-10-24T07:46:49.123Z,100030.78
2022-10-24T07:51:50.947Z,100015.75
2022-10-24T07:56:54.129Z,100018.38
2022-10-24T08:01:56.082Z,100026.56
2022-10-24T08:06:58.490Z,100012.25
2022-10-24T08:12:00.319Z,100008.94
2022-10-24T08:17:01.828Z,100005.19
2022-10-24T08:22:03.885Z,100015.88
2022-10-24T08:27:05.435Z,100014.84
2022-10-24T08:32:07.332Z,100011.53
2022-10-24T08:37:08.908Z,100021.13
2022-10-24T08:42:14.797Z,100009.72
2022-10-24T08:47:22.498Z,100000.44
2022-10-24T08:52:28.754Z,100016.22
2022-10-24T09:02:44.289Z,100016.97
2022-10-24T09:07:48.169Z,100014.34
2022-10-24T09:12:49.850Z,100024.19
2022-10-24T09:17:52.651Z,100031.38
2022-10-24T09:22:57.621Z,100023.44
2022-10-24T09:28:02.666Z,100042.06
2022-10-24T09:33:25.554Z,100056.19
2022-10-24T09:38:36.049Z,100054.34
2022-10-24T09:43:40.520Z,100057.16
2022-10-24T09:48:41.932Z,100057.03
2022-10-24T09:54:02.282Z,100055.06
2022-10-24T09:59:36.031Z,100067.53
2022-10-24T10:04:41.670Z,100064.97
2022-10-24T10:09:52.750Z,100069.31
2022-10-24T10:14:58.200Z,100070.34
2022-10-24T10:19:59.874Z,100070.59
2022-10-24T10:25:01.673Z,100068.59
2022-10-24T10:30:17.844Z,100077.78
2022-10-24T10:35:52.044Z,100076.81
2022-10-24T10:41:03.872Z,100086.09
2022-10-24T10:46:08.425Z,100099.16
2022-10-24T10:51:58.808Z,100106.09
2022-10-24T10:57:06.872Z,100105.34
2022-10-24T11:02:27.209Z,100114.13
2022-10-24T11:07:40.508Z,100114.16
2022-10-24T11:12:44.139Z,100111.28
2022-10-24T11:17:47.788Z,100115.63
2022-10-24T11:22:58.864Z,100109.25
2022-10-24T11:28:13.884Z,100101.53
2022-10-24T11:33:21.000Z,100105.06
2022-10-24T11:38:24.267Z,100107.22
2022-10-24T11:43:31.039Z,100101.66
2022-10-24T11:48:40.832Z,100090.59
2022-10-24T11:53:48.055Z,100080.69
2022-10-24T11:58:52.417Z,100074.88
2022-10-24T12:04:03.765Z,100067.41
2022-10-24T12:09:08.381Z,100069.25
2022-10-24T12:14:09.876Z,100061.09
2022-10-24T12:19:13.946Z,100047.19
2022-10-24T12:24:24.450Z,100046.25
2022-10-24T12:29:26.966Z,100036.88
2022-10-24T12:34:28.352Z,100038.22
2022-10-24T12:39:34.722Z,100039.59
2022-10-24T12:44:37.921Z,100048.25
2022-10-24T12:49:39.266Z,100040.22
2022-10-24T12:54:40.682Z,100041.56
2022-10-24T12:59:46.394Z,100041.44
2022-10-24T13:05:07.895Z,100045.50
2022-10-24T13:10:11.970Z,100042.72
2022-10-24T13:15:27.418Z,100041.31
2022-10-24T13:20:32.701Z,100038.78
2022-10-24T13:25:38.791Z,100032.31
2022-10-24T13:30:40.228Z,100027.75
2022-10-24T13:35:41.836Z,100033.44
2022-10-24T13:40:44.436Z,100027.28
2022-10-24T13:45:51.744Z,100045.16
2022-10-24T13:51:07.246Z,100048.72
2022-10-24T13:56:13.599Z,100049.69
2022-10-24T14:01:15.055Z,100044.81
2022-10-24T14:06:16.612Z,100048.72
2022-10-24T14:11:23.631Z,100051.34
2022-10-24T14:16:26.336Z,100055.50
2022-10-24T14:21:27.694Z,100044.47
2022-10-24T14:26:29.360Z,100049.03
2022-10-24T14:31:34.810Z,100044.16
2022-10-24T14:36:38.187Z,100052.84
2022-10-24T14:41:40.749Z,100057.13
2022-10-24T14:46:42.977Z,100057.03
2022-10-24T14:51:44.488Z,100064.38
2022-10-24T14:56:46.305Z,100064.47
2022-10-24T15:01:57.993Z,100057.19
2022-10-24T15:07:12.196Z,100052.31
2022-10-24T15:12:13.694Z,100071.00
2022-10-24T15:17:18.764Z,100067.91
2022-10-24T15:22:36.614Z,100069.00
2022-10-24T15:27:39.556Z,100071.09
2022-10-24T15:32:41.102Z,100075.28
2022-10-24T15:37:53.481Z,100065.06
2022-10-24T15:42:55.063Z,100066.25
2022-10-24T15:47:56.478Z,100062.44
2022-10-24T15:53:00.367Z,100078.41
2022-10-24T15:58:31.735Z,100074.97
2022-10-24T16:03:34.211Z,100076.38
2022-10-24T16:08:35.553Z,100088.97
2022-10-24T16:13:36.966Z,100086.50
2022-10-24T16:18:38.351Z,100094.38
2022-10-24T16:23:39.782Z,100102.47
2022-10-24T16:28:41.542Z,100108.25
2022-10-24T16:33:42.842Z,100115.56
2022-10-24T16:38:45.360Z,100130.22
2022-10-24T16:43:49.137Z,100113.72
2022-10-24T16:48:51.518Z,100123.75
2022-10-24T16:53:53.020Z,100143.44
2022-10-24T16:58:54.371Z,100144.69
2022-10-24T17:03:55.739Z,100152.94
2022-10-24T17:08:57.062Z,100145.88
2022-10-24T17:13:58.592Z,100130.56
2022-10-24T17:19:14.845Z,100147.19
2022-10-24T17:24:18.194Z,100191.63
2022-10-24T17:29:23.999Z,100200.22
2022-10-24T17:34:25.563Z,100233.72
2022-10-24T17:39:31.381Z,100258.09
2022-10-24T17:44:32.892Z,100263.19
2022-10-24T17:49:34.248Z,100234.97
2022-10-24T17:54:36.097Z,100255.75
2022-10-24T17:59:37.417Z,100271.03
2022-10-24T18:04:40.579Z,100260.59
2022-10-24T18:09:41.964Z,100274.50
2022-10-24T18:14:43.286Z,100292.00
2022-10-24T18:19:47.143Z,100283.66
2022-10-24T18:24:48.510Z,100265.38
2022-10-24T18:29:49.843Z,100280.19
2022-10-24T18:34:51.168Z,100263.91
2022-10-24T18:39:53.503Z,100270.56
2022-10-24T18:44:54.966Z,100268.91
2022-10-24T18:49:57.404Z,100274.25
2022-10-24T18:55:12.958Z,100289.06
2022-10-24T19:00:15.861Z,100275.00
2022-10-24T19:05:20.143Z,100280.13
2022-10-24T19:10:25.744Z,100267.53
2022-10-24T19:15:28.026Z,100263.91
2022-10-24T19:20:32.254Z,100266.09
2022-10-24T19:25:33.638Z,100293.94
2022-10-24T19:30:34.985Z,100301.97
2022-10-24T19:35:37.394Z,100307.28
2022-10-24T19:40:44.511Z,100281.78
2022-10-24T19:45:50.871Z,100283.81
2022-10-24T19:51:06.381Z,100285.81
2022-10-24T19:56:12.249Z,100279.56
2022-10-24T20:01:15.556Z,100299.53
2022-10-24T20:06:17.405Z,100315.63
2022-10-24T20:11:20.555Z,100330.19
2022-10-24T20:16:23.316Z,100328.31
2022-10-24T20:21:24.698Z,100319.03
2022-10-24T20:26:26.596Z,100321.00
2022-10-24T20:31:35.411Z,100332.63
2022-10-24T20:36:38.066Z,100341.00
2022-10-24T20:41:39.464Z,100340.78
2022-10-24T20:46:40.969Z,100342.81
2022-10-24T20:51:42.897Z,100348.06
2022-10-24T20:56:44.369Z,100356.72
2022-10-24T21:01:45.900Z,100366.25
2022-10-24T21:06:47.324Z,100379.19
2022-10-24T21:11:48.862Z,100382.97
2022-10-24T21:16:50.264Z,100392.59
2022-10-24T21:21:51.567Z,100398.00
2022-10-24T21:26:53.733Z,100389.81
2022-10-24T21:31:55.167Z,100404.63
2022-10-24T21:36:56.523Z,100394.56
2022-10-24T21:41:58.175Z,100401.63
2022-10-24T21:46:59.650Z,100400.16
2022-10-24T21:52:01.009Z,100409.03
2022-10-24T21:57:02.328Z,100399.16
2022-10-24T22:02:03.784Z,100402.94
2022-10-24T22:07:05.971Z,100397.47
2022-10-24T22:12:07.409Z,100412.38
2022-10-24T22:17:08.787Z,100409.44
2022-10-24T22:22:10.163Z,100425.44
2022-10-24T22:27:11.491Z,100423.63
2022-10-24T22:32:13.973Z,100432.69
2022-10-24T22:37:18.348Z,100444.25
2022-10-24T22:42:20.397Z,100449.72
2022-10-24T22:47:24.819Z,100447.53
2022-10-24T22:52:26.280Z,100453.00
2022-10-24T22:57:27.946Z,100463.63
2022-10-24T23:02:33.776Z,100477.78
2022-10-24T23:07:38.503Z,100476.44
2022-10-24T23:12:40.009Z,100478.31
2022-10-24T23:17:41.830Z,100494.75
2022-10-24T23:22:44.508Z,100492.28
2022-10-24T23:27:46.192Z,100505.38
2022-10-24T23:32:49.064Z,100495.09
2022-10-24T23:37:51.746Z,100497.56
2022-10-24T23:42:53.562Z,100508.09
2022-10-24T23:48:06.339Z,100493.53
2022-10-24T23:53:26.370Z,100500.16
2022-10-24T23:58:27.704Z,100495.59
